createdAt,value
2023-01-06T00:00:38.026Z,56.58
2023-01-06T00:03:04.917Z,56.74
2023-01-06T00:05:31.614Z,56.69
2023-01-06T00:07:59.140Z,56.63
2023-01-06T00:10:26.091Z,56.58
2023-01-06T00:12:52.788Z,56.73
2023-01-06T00:15:19.737Z,56.65
2023-01-06T00:17:46.419Z,56.70
2023-01-06T00:20:13.240Z,56.83
2023-01-06T00:22:40.469Z,56.78
2023-01-06T00:25:07.280Z,56.56
2023-01-06T00:27:33.888Z,56.49
2023-01-06T00:30:00.472Z,56.56
2023-01-06T00:32:27.140Z,56.75
2023-01-06T00:34:53.752Z,56.65
2023-01-06T00:37:20.384Z,56.89
2023-01-06T00:39:53.519Z,56.92
2023-01-06T00:42:22.709Z,56.83
2023-01-06T00:44:49.595Z,56.60
2023-01-06T00:47:16.262Z,56.63
2023-01-06T00:49:42.931Z,56.98
2023-01-06T00:52:09.514Z,56.91
2023-01-06T00:54:37.264Z,56.77
2023-01-06T00:57:05.501Z,56.94
2023-01-06T00:59:32.204Z,56.95
2023-01-06T01:02:01.976Z,56.69
2023-01-06T01:04:29.308Z,56.64
2023-01-06T01:06:55.980Z,57.05
2023-01-06T01:09:24.294Z,56.91
2023-01-06T01:12:10.161Z,56.78
2023-01-06T01:14:37.842Z,56.99
2023-01-06T01:17:04.463Z,56.84
2023-01-06T01:19:31.187Z,56.71
2023-01-06T01:21:57.800Z,56.96
2023-01-06T01:24:24.516Z,56.74
2023-01-06T01:26:51.079Z,56.65
2023-01-06T01:29:23.500Z,56.71
2023-01-06T01:31:51.681Z,56.57
2023-01-06T01:34:18.556Z,56.63
2023-01-06T01:36:46.108Z,56.63
2023-01-06T01:39:13.751Z,56.74
2023-01-06T01:41:40.997Z,56.44
2023-01-06T01:44:26.420Z,56.47
2023-01-06T01:46:53.110Z,56.81
2023-01-06T01:49:21.000Z,56.32
2023-01-06T01:51:48.535Z,56.73
2023-01-06T01:54:16.407Z,56.76
2023-01-06T01:56:45.999Z,56.62
2023-01-06T01:59:15.565Z,56.61
2023-01-06T02:01:42.230Z,56.65
2023-01-06T02:04:08.960Z,56.65
2023-01-06T02:06:35.659Z,56.31
2023-01-06T02:09:19.439Z,56.64
2023-01-06T02:11:51.121Z,56.24
2023-01-06T02:14:22.353Z,56.32
2023-01-06T02:17:07.571Z,56.45
2023-01-06T02:19:52.955Z,56.50
2023-01-06T02:22:38.380Z,56.20
2023-01-06T02:25:27.894Z,56.49
2023-01-06T02:28:12.784Z,56.47
2023-01-06T02:30:56.566Z,56.33
2023-01-06T02:33:30.948Z,56.42
2023-01-06T02:36:14.061Z,56.44
2023-01-06T02:38:48.240Z,56.29
2023-01-06T02:41:15.286Z,56.06
2023-01-06T02:44:02.836Z,56.32
2023-01-06T02:46:32.763Z,56.11
2023-01-06T02:49:22.533Z,56.07
2023-01-06T02:51:57.733Z,56.36
2023-01-06T02:54:33.064Z,56.38
2023-01-06T02:57:18.455Z,56.45
2023-01-06T03:00:12.556Z,56.39
2023-01-06T03:02:41.468Z,56.22
2023-01-06T03:05:08.799Z,55.92
2023-01-06T03:07:36.367Z,56.38
2023-01-06T03:10:03.115Z,55.99
2023-01-06T03:12:41.902Z,56.38
2023-01-06T03:15:08.987Z,56.38
2023-01-06T03:17:35.998Z,56.38
2023-01-06T03:20:03.218Z,56.27
2023-01-06T03:22:30.333Z,56.21
2023-01-06T03:24:57.016Z,56.36
2023-01-06T03:27:25.973Z,56.00
2023-01-06T03:29:53.067Z,56.03
2023-01-06T03:32:24.543Z,56.20
2023-01-06T03:35:04.426Z,55.95
2023-01-06T03:37:55.125Z,55.89
2023-01-06T03:40:21.859Z,56.09
2023-01-06T03:43:09.393Z,56.12
2023-01-06T03:45:40.190Z,55.98
2023-01-06T03:48:22.863Z,55.91
2023-01-06T03:51:08.471Z,55.77
2023-01-06T03:53:43.229Z,55.80
2023-01-06T03:56:16.097Z,56.02
2023-01-06T03:58:43.134Z,55.80
2023-01-06T04:01:10.601Z,55.88
2023-01-06T04:03:37.607Z,55.71
2023-01-06T04:06:04.459Z,55.99
2023-01-06T04:08:32.313Z,55.71
2023-01-06T04:10:59.468Z,56.03
2023-01-06T04:13:27.396Z,55.60
2023-01-06T04:15:56.625Z,55.89
2023-01-06T04:18:23.328Z,55.76
2023-01-06T04:20:50.093Z,55.65
2023-01-06T04:23:23.095Z,55.72
2023-01-06T04:25:50.052Z,55.75
2023-01-06T04:28:26.852Z,55.39
2023-01-06T04:30:57.194Z,55.33
2023-01-06T04:33:23.918Z,55.34
2023-01-06T04:35:52.300Z,55.58
2023-01-06T04:38:20.697Z,55.53
2023-01-06T04:40:47.212Z,55.57
2023-01-06T04:43:16.309Z,55.16
2023-01-06T04:45:43.278Z,55.29
2023-01-06T04:48:10.792Z,55.14
2023-01-06T04:50:37.655Z,55.43
2023-01-06T04:53:04.723Z,55.24
2023-01-06T04:55:31.425Z,55.31
2023-01-06T04:57:58.067Z,55.36
2023-01-06T05:00:25.000Z,55.04
2023-01-06T05:02:51.597Z,55.31
2023-01-06T05:05:18.193Z,55.29
2023-01-06T05:07:44.842Z,54.95
2023-01-06T05:10:11.525Z,55.01
2023-01-06T05:12:38.188Z,55.17
2023-01-06T05:15:05.051Z,55.05
2023-01-06T05:17:31.806Z,54.98
2023-01-06T05:19:58.401Z,54.95
2023-01-06T05:22:25.660Z,55.22
2023-01-06T05:24:52.203Z,55.19
2023-01-06T05:27:18.809Z,54.86
2023-01-06T05:29:45.351Z,55.20
2023-01-06T05:32:11.924Z,54.91
2023-01-06T05:34:38.501Z,54.89
2023-01-06T05:37:05.223Z,55.05
2023-01-06T05:39:31.953Z,55.13
2023-01-06T05:41:58.575Z,55.06
2023-01-06T05:44:25.212Z,54.92
2023-01-06T05:46:51.828Z,55.00
2023-01-06T05:49:18.473Z,54.79
2023-01-06T05:51:45.073Z,55.10
2023-01-06T05:54:11.762Z,55.04
2023-01-06T05:56:38.368Z,55.03
2023-01-06T05:59:04.995Z,55.07
2023-01-06T06:01:31.857Z,54.88
2023-01-06T06:03:58.861Z,54.90
2023-01-06T06:06:26.277Z,54.74
2023-01-06T06:08:52.919Z,55.08
2023-01-06T06:11:20.058Z,54.73
2023-01-06T06:13:47.481Z,54.80
2023-01-06T06:16:14.919Z,55.04
2023-01-06T06:18:44.944Z,55.07
2023-01-06T06:21:12.485Z,55.02
2023-01-06T06:23:39.496Z,55.00
2023-01-06T06:26:06.412Z,54.91
2023-01-06T06:28:33.453Z,54.91
2023-01-06T06:31:16.509Z,54.96
2023-01-06T06:33:43.295Z,54.60
2023-01-06T06:36:15.862Z,54.51
2023-01-06T06:38:44.551Z,54.52
2023-01-06T06:41:11.195Z,54.54
2023-01-06T06:43:38.323Z,54.47
2023-01-06T06:46:05.605Z,54.65
2023-01-06T06:48:33.926Z,55.10
2023-01-06T06:51:03.257Z,54.66
2023-01-06T06:53:29.997Z,54.96
2023-01-06T06:55:57.025Z,55.08
2023-01-06T06:58:24.090Z,55.28
2023-01-06T07:00:51.151Z,55.50
2023-01-06T07:03:17.947Z,55.68
2023-01-06T07:05:45.817Z,55.63
2023-01-06T07:08:12.923Z,55.43
2023-01-06T07:10:39.779Z,55.26
2023-01-06T07:13:06.566Z,55.38
2023-01-06T07:15:34.024Z,55.47
2023-01-06T07:18:05.062Z,55.91
2023-01-06T07:20:33.264Z,55.71
2023-01-06T07:23:00.152Z,56.16
2023-01-06T07:25:27.371Z,56.26
2023-01-06T07:27:55.562Z,56.40
2023-01-06T07:30:22.929Z,56.29
2023-01-06T07:32:50.260Z,56.34
2023-01-06T07:35:17.855Z,56.50
2023-01-06T07:37:44.769Z,56.58
2023-01-06T07:40:11.968Z,56.54
2023-01-06T07:42:38.685Z,56.20
2023-01-06T07:45:07.336Z,56.35
2023-01-06T07:47:34.070Z,56.12
2023-01-06T07:50:01.019Z,56.30
2023-01-06T07:52:27.741Z,56.55
2023-01-06T07:54:56.901Z,56.77
2023-01-06T07:57:23.620Z,56.83
2023-01-06T07:59:50.448Z,56.33
2023-01-06T08:02:17.278Z,56.68
2023-01-06T08:04:44.281Z,56.60
2023-01-06T08:07:10.992Z,56.62
2023-01-06T08:09:37.747Z,56.39
2023-01-06T08:12:04.620Z,56.81
2023-01-06T08:14:31.362Z,56.57
2023-01-06T08:16:58.123Z,56.49
2023-01-06T08:19:24.903Z,56.81
2023-01-06T08:21:51.669Z,56.48
2023-01-06T08:24:18.477Z,56.90
2023-01-06T08:26:45.182Z,56.74
2023-01-06T08:29:11.933Z,57.05
2023-01-06T08:31:38.870Z,57.05
2023-01-06T08:34:06.202Z,57.04
2023-01-06T08:36:32.889Z,56.77
2023-01-06T08:38:59.711Z,56.86
2023-01-06T08:41:26.557Z,56.97
2023-01-06T08:43:53.324Z,57.40
2023-01-06T08:46:20.548Z,57.87
2023-01-06T08:48:48.114Z,57.60
2023-01-06T08:51:18.102Z,57.43
2023-01-06T08:53:45.430Z,57.40
2023-01-06T08:56:17.475Z,57.21
2023-01-06T08:58:44.293Z,57.05
2023-01-06T09:01:19.493Z,57.14
2023-01-06T09:03:46.515Z,56.81
2023-01-06T09:06:13.535Z,57.06
2023-01-06T09:08:40.393Z,56.87
2023-01-06T09:11:08.596Z,56.87
2023-01-06T09:13:35.901Z,57.15
2023-01-06T09:16:10.285Z,56.85
2023-01-06T09:18:37.613Z,56.73
2023-01-06T09:21:05.589Z,56.88
2023-01-06T09:23:32.668Z,56.73
2023-01-06T09:25:59.504Z,56.10
2023-01-06T09:28:26.485Z,56.41
2023-01-06T09:30:53.427Z,56.29
2023-01-06T09:33:20.754Z,56.14
2023-01-06T09:35:47.535Z,56.47
2023-01-06T09:38:19.626Z,56.38
2023-01-06T09:41:25.037Z,56.47
2023-01-06T09:43:59.029Z,56.25
2023-01-06T10:05:35.681Z,55.36
2023-01-06T10:08:13.255Z,55.40
2023-01-06T10:10:48.893Z,55.73
2023-01-06T10:13:34.080Z,55.98
2023-01-06T10:16:16.749Z,56.09
2023-01-06T10:18:53.185Z,56.39
2023-01-06T10:22:09.524Z,56.64
2023-01-06T10:24:36.257Z,56.57
2023-01-06T10:27:20.947Z,56.53
2023-01-06T10:29:47.580Z,56.58
2023-01-06T10:32:15.773Z,56.46
2023-01-06T10:34:42.600Z,56.59
2023-01-06T10:37:20.187Z,56.82
2023-01-06T10:39:48.480Z,56.80
2023-01-06T10:42:50.291Z,56.63
2023-01-06T10:45:16.969Z,56.12
2023-01-06T10:47:43.677Z,56.35
2023-01-06T10:50:17.551Z,56.32
2023-01-06T10:52:45.120Z,56.26
2023-01-06T10:55:28.334Z,56.30
2023-01-06T10:57:55.293Z,56.14
2023-01-06T11:00:22.730Z,55.80
2023-01-06T11:02:50.498Z,55.94
2023-01-06T11:05:23.986Z,55.93
2023-01-06T11:07:57.468Z,56.04
2023-01-06T11:10:25.546Z,55.55
2023-01-06T11:12:52.107Z,55.58
2023-01-06T11:15:22.548Z,55.62
2023-01-06T11:17:49.171Z,55.81
2023-01-06T11:20:18.628Z,55.85
2023-01-06T11:22:51.357Z,55.45
2023-01-06T11:25:29.580Z,55.46
2023-01-06T11:28:11.453Z,55.88
2023-01-06T11:30:38.875Z,55.63
2023-01-06T11:33:05.849Z,55.46
2023-01-06T11:35:32.967Z,55.15
2023-01-06T11:38:00.026Z,55.08
2023-01-06T11:40:32.099Z,54.85
2023-01-06T11:43:00.030Z,54.85
2023-01-06T11:45:40.256Z,54.93
2023-01-06T11:48:17.323Z,55.06
2023-01-06T11:50:54.802Z,54.95
2023-01-06T11:53:21.808Z,54.77
2023-01-06T11:55:55.420Z,54.67
2023-01-06T11:58:25.564Z,55.03
2023-01-06T12:00:53.629Z,55.20
2023-01-06T12:03:31.386Z,55.03
2023-01-06T12:06:00.862Z,54.87
2023-01-06T12:08:30.781Z,55.14
2023-01-06T12:10:58.967Z,54.88
2023-01-06T12:13:25.532Z,54.72
2023-01-06T12:15:56.488Z,55.00
2023-01-06T12:18:24.328Z,54.77
2023-01-06T12:20:51.320Z,55.13
2023-01-06T12:23:22.655Z,55.01
2023-01-06T12:25:49.475Z,54.80
2023-01-06T12:28:20.277Z,55.02
2023-01-06T12:30:55.520Z,54.94
2023-01-06T12:33:28.328Z,54.82
2023-01-06T12:35:55.796Z,54.93
2023-01-06T12:38:37.416Z,54.76
2023-01-06T12:41:24.391Z,54.94
2023-01-06T12:44:00.245Z,54.70
2023-01-06T12:46:30.134Z,54.77
2023-01-06T12:49:01.534Z,55.01
2023-01-06T12:51:38.760Z,54.72
2023-01-06T12:54:06.812Z,54.92
2023-01-06T12:56:45.388Z,54.81
2023-01-06T12:59:14.818Z,54.65
2023-01-06T13:01:51.656Z,54.85
2023-01-06T13:04:33.846Z,54.57
2023-01-06T13:07:07.477Z,54.84
2023-01-06T13:09:52.872Z,54.81
2023-01-06T13:12:28.368Z,54.93
2023-01-06T13:15:04.566Z,55.01
2023-01-06T13:17:37.036Z,54.38
2023-01-06T13:20:06.069Z,54.67
2023-01-06T13:22:35.291Z,54.56
2023-01-06T13:25:01.930Z,54.49
2023-01-06T13:27:43.824Z,54.31
2023-01-06T13:30:10.615Z,54.38
2023-01-06T13:32:55.871Z,54.61
2023-01-06T13:35:28.426Z,54.17
2023-01-06T13:38:13.065Z,54.20
2023-01-06T13:40:39.843Z,54.29
2023-01-06T13:43:07.183Z,54.28
2023-01-06T13:45:34.320Z,54.43
2023-01-06T13:48:00.915Z,54.48
2023-01-06T13:50:27.678Z,54.49
2023-01-06T13:52:54.208Z,54.21
2023-01-06T13:55:20.844Z,54.33
2023-01-06T13:57:47.476Z,54.33
2023-01-06T14:00:15.427Z,54.13
2023-01-06T14:02:42.967Z,54.01
2023-01-06T14:05:18.832Z,54.46
2023-01-06T14:07:51.339Z,54.46
2023-01-06T14:10:33.081Z,54.38
2023-01-06T14:12:59.928Z,54.40
2023-01-06T14:15:28.075Z,54.26
2023-01-06T14:17:54.652Z,54.29
2023-01-06T14:20:34.687Z,54.39
2023-01-06T14:23:02.583Z,54.40
2023-01-06T14:25:29.196Z,54.51
2023-01-06T14:27:58.835Z,54.25
2023-01-06T14:30:25.355Z,54.75
2023-01-06T14:32:52.089Z,54.59
2023-01-06T14:35:20.262Z,54.40
2023-01-06T14:37:50.887Z,54.38
2023-01-06T14:40:27.858Z,54.15
2023-01-06T14:42:55.516Z,53.99
2023-01-06T14:45:23.921Z,54.25
2023-01-06T14:47:51.725Z,54.36
2023-01-06T14:50:18.323Z,54.45
2023-01-06T14:53:11.311Z,54.26
2023-01-06T14:55:38.705Z,54.02
2023-01-06T14:58:05.216Z,54.18
2023-01-06T15:00:33.467Z,54.08
2023-01-06T15:03:01.098Z,53.98
2023-01-06T15:05:34.748Z,54.38
2023-01-06T15:08:01.360Z,54.39
2023-01-06T15:10:28.208Z,54.44
2023-01-06T15:12:57.184Z,54.59
2023-01-06T15:15:24.064Z,54.23
2023-01-06T15:17:51.167Z,54.71
2023-01-06T15:20:17.780Z,54.53
2023-01-06T15:22:49.316Z,54.79
2023-01-06T15:25:19.942Z,54.49
2023-01-06T15:27:48.352Z,54.53
2023-01-06T15:30:16.854Z,54.75
2023-01-06T15:32:43.467Z,54.91
2023-01-06T15:35:14.694Z,54.85
2023-01-06T15:37:41.306Z,55.11
2023-01-06T15:40:08.189Z,55.16
2023-01-06T15:42:36.281Z,55.06
2023-01-06T15:45:04.689Z,55.08
2023-01-06T15:47:37.142Z,55.01
2023-01-06T15:50:05.209Z,55.46
2023-01-06T15:52:33.128Z,55.42
2023-01-06T15:55:00.770Z,55.42
2023-01-06T15:57:27.544Z,55.75
2023-01-06T15:59:57.713Z,55.70
2023-01-06T16:02:26.045Z,55.70
2023-01-06T16:04:52.780Z,55.74
2023-01-06T16:07:23.705Z,55.60
2023-01-06T16:09:50.414Z,55.56
2023-01-06T16:12:19.900Z,55.84
2023-01-06T16:14:49.132Z,55.59
2023-01-06T16:17:20.563Z,55.57
2023-01-06T16:20:01.451Z,56.00
2023-01-06T16:22:47.602Z,56.33
2023-01-06T16:25:34.278Z,56.19
2023-01-06T16:28:09.398Z,56.61
2023-01-06T16:30:36.818Z,56.08
2023-01-06T16:33:04.067Z,56.40
2023-01-06T16:35:34.490Z,56.17
2023-01-06T16:38:01.629Z,56.47
2023-01-06T16:40:28.988Z,56.22
2023-01-06T16:43:00.608Z,56.50
2023-01-06T16:45:40.855Z,56.41
2023-01-06T16:48:07.701Z,56.40
2023-01-06T16:50:40.722Z,56.04
2023-01-06T16:53:10.658Z,56.13
2023-01-06T16:55:38.591Z,56.38
2023-01-06T16:58:15.983Z,56.30
2023-01-06T17:00:48.042Z,55.71
2023-01-06T17:03:16.856Z,56.18
2023-01-06T17:05:43.776Z,56.09
2023-01-06T17:08:37.870Z,55.85
2023-01-06T17:11:18.121Z,55.75
2023-01-06T17:13:54.646Z,55.87
2023-01-06T17:16:27.161Z,55.94
2023-01-06T17:18:56.562Z,55.82
2023-01-06T17:21:27.157Z,55.79
2023-01-06T17:24:16.858Z,55.82
2023-01-06T17:26:58.953Z,55.29
2023-01-06T17:29:29.131Z,55.64
2023-01-06T17:31:58.749Z,55.62
2023-01-06T17:34:38.451Z,55.75
2023-01-06T17:37:23.939Z,55.39
2023-01-06T17:39:53.678Z,55.08
2023-01-06T17:42:36.000Z,55.17
2023-01-06T17:45:25.678Z,55.48
2023-01-06T17:47:52.599Z,55.12
2023-01-06T17:50:34.387Z,55.23
2023-01-06T17:53:38.151Z,55.41
2023-01-06T17:56:07.687Z,55.25
2023-01-06T17:58:39.839Z,54.94
2023-01-06T18:01:32.209Z,55.21
2023-01-06T18:04:00.398Z,54.96
2023-01-06T18:06:38.716Z,55.00
2023-01-06T18:09:05.893Z,54.83
2023-01-06T18:11:35.195Z,54.73
2023-01-06T18:14:33.716Z,54.98
2023-01-06T18:17:15.400Z,54.62
2023-01-06T18:19:42.345Z,54.45
2023-01-06T18:22:18.810Z,54.64
2023-01-06T18:24:47.092Z,54.64
2023-01-06T18:27:22.455Z,54.53
2023-01-06T18:29:49.966Z,54.57
2023-01-06T18:32:33.425Z,54.70
2023-01-06T18:35:28.834Z,54.83
2023-01-06T18:38:00.094Z,54.22
2023-01-06T18:40:27.192Z,54.54
2023-01-06T18:42:55.322Z,54.38
2023-01-06T18:45:35.933Z,54.37
2023-01-06T18:48:12.715Z,54.62
2023-01-06T18:50:42.588Z,54.43
2023-01-06T18:53:09.221Z,54.10
2023-01-06T18:55:41.235Z,54.53
2023-01-06T18:58:35.649Z,54.35
2023-01-06T19:01:12.062Z,54.43
2023-01-06T19:03:47.227Z,54.37
2023-01-06T19:06:20.067Z,54.10
2023-01-06T19:08:49.411Z,53.91
2023-01-06T19:11:24.649Z,54.22
2023-01-06T19:13:55.993Z,54.17
2023-01-06T19:16:41.272Z,54.04
2023-01-06T19:19:11.206Z,54.02
2023-01-06T19:21:38.450Z,54.21
2023-01-06T19:24:30.684Z,53.89
2023-01-06T19:27:01.812Z,54.10
2023-01-06T19:29:33.473Z,53.70
2023-01-06T19:32:04.088Z,54.05
2023-01-06T19:34:31.024Z,53.77
2023-01-06T19:36:58.333Z,53.90
2023-01-06T19:39:40.450Z,54.00
2023-01-06T19:42:24.550Z,54.20
2023-01-06T19:44:56.308Z,53.59
2023-01-06T19:47:25.516Z,53.94
2023-01-06T19:49:56.069Z,54.06
2023-01-06T19:52:31.880Z,53.61
2023-01-06T19:55:23.177Z,54.15
2023-01-06T19:58:00.638Z,53.52
2023-01-06T20:00:31.808Z,53.87
2023-01-06T20:03:01.976Z,53.56
2023-01-06T20:05:29.615Z,53.83
2023-01-06T20:07:56.354Z,53.86
2023-01-06T20:10:23.152Z,53.73
2023-01-06T20:12:49.998Z,53.79
2023-01-06T20:15:16.879Z,53.63
2023-01-06T20:17:43.589Z,53.80
2023-01-06T20:20:11.282Z,53.42
2023-01-06T20:22:38.033Z,53.86
2023-01-06T20:25:05.184Z,53.57
2023-01-06T20:27:31.912Z,53.68
2023-01-06T20:29:58.656Z,53.62
2023-01-06T20:32:25.308Z,53.82
2023-01-06T20:34:52.095Z,53.36
2023-01-06T20:37:18.891Z,53.44
2023-01-06T20:39:45.700Z,53.54
2023-01-06T20:42:13.425Z,53.35
2023-01-06T20:44:40.346Z,53.40
2023-01-06T20:47:07.130Z,53.29
2023-01-06T20:49:34.540Z,53.78
2023-01-06T20:52:01.398Z,53.53
2023-01-06T20:54:28.299Z,53.31
2023-01-06T20:56:55.065Z,53.50
2023-01-06T20:59:21.960Z,53.67
2023-01-06T21:01:48.788Z,53.41
2023-01-06T21:04:15.584Z,53.67
2023-01-06T21:06:42.372Z,53.39
2023-01-06T21:09:09.291Z,53.40
2023-01-06T21:11:35.988Z,53.42
2023-01-06T21:14:02.737Z,53.35
2023-01-06T21:16:29.505Z,53.34
2023-01-06T21:18:57.512Z,53.31
2023-01-06T21:21:24.336Z,53.64
2023-01-06T21:23:51.036Z,53.46
2023-01-06T21:26:17.698Z,53.69
2023-01-06T21:28:45.083Z,53.34
2023-01-06T21:31:11.964Z,53.54
2023-01-06T21:33:38.737Z,53.68
2023-01-06T21:36:05.801Z,53.67
2023-01-06T21:38:34.503Z,53.58
2023-01-06T21:41:19.552Z,53.52
2023-01-06T21:43:46.267Z,53.24
2023-01-06T21:46:12.934Z,53.36
2023-01-06T21:48:39.756Z,53.61
2023-01-06T21:51:06.621Z,53.24
2023-01-06T21:53:33.559Z,53.65
2023-01-06T21:56:00.592Z,53.27
2023-01-06T21:58:27.419Z,53.54
2023-01-06T22:00:54.149Z,53.39
2023-01-06T22:03:21.178Z,53.59
2023-01-06T22:05:48.025Z,53.54
2023-01-06T22:08:14.941Z,53.66
2023-01-06T22:10:43.169Z,53.35
2023-01-06T22:13:12.887Z,53.59
2023-01-06T22:15:40.313Z,53.53
2023-01-06T22:18:07.256Z,53.61
2023-01-06T22:20:34.269Z,53.51
2023-01-06T22:23:03.909Z,53.15
2023-01-06T22:25:30.988Z,53.51
2023-01-06T22:28:00.700Z,53.24
2023-01-06T22:30:27.956Z,53.07
2023-01-06T22:32:54.709Z,53.17
2023-01-06T22:35:21.483Z,53.12
2023-01-06T22:37:48.299Z,53.52
2023-01-06T22:40:15.149Z,53.22
2023-01-06T22:42:42.350Z,53.14
2023-01-06T22:45:09.550Z,53.53
2023-01-06T22:47:36.717Z,53.36
2023-01-06T22:50:04.337Z,53.46
2023-01-06T22:52:31.131Z,53.12
2023-01-06T22:54:57.877Z,53.42
2023-01-06T22:57:25.922Z,53.09
2023-01-06T22:59:52.660Z,53.20
2023-01-06T23:02:19.599Z,53.15
2023-01-06T23:04:46.312Z,53.48
2023-01-06T23:07:14.100Z,53.54
2023-01-06T23:09:40.812Z,53.15
2023-01-06T23:12:07.776Z,53.17
2023-01-06T23:14:34.489Z,53.34
2023-01-06T23:17:01.397Z,53.05
2023-01-06T23:19:28.106Z,53.32
2023-01-06T23:21:54.869Z,53.41
2023-01-06T23:24:21.580Z,53.44
2023-01-06T23:26:48.693Z,53.30
2023-01-06T23:29:15.658Z,53.49
2023-01-06T23:31:44.629Z,53.05
2023-01-06T23:34:16.812Z,53.43
2023-01-06T23:36:43.992Z,53.20
2023-01-06T23:39:13.318Z,52.98
2023-01-06T23:41:40.365Z,53.27
2023-01-06T23:44:07.162Z,53.35
2023-01-06T23:46:36.638Z,52.92
2023-01-06T23:49:04.617Z,53.08
2023-01-06T23:51:32.576Z,53.39
2023-01-06T23:54:00.359Z,53.11
2023-01-06T23:56:29.571Z,53.38
2023-01-06T23:58:58.322Z,53.20
